首页
METAR-TAF:

METAR-TAF

机场 :

博兹曼机场

博兹曼, 蒙大拿州, 美国

纬度: 45-47-17N, 经度: 111-09-39W, 海拔: 1364米

当前天气观测

该预报发布于22分钟前的16:56 UTC
风速4节,风向北转东北
温度 21°C
湿度 56%
气压 1020 hPa
能見度: 16.1公里
天空无云

METAR: KBZN 041656Z 03004KT 10SM CLR 21/12 A3012 RMK AO2 SLP168 T02110117

时间: 11:18 (17:18 UTC)

预报

该预报发布于5小时和58分钟前的11:20 UTC
预报有效从04日的 12点(UTC)到 05日的 18点(UTC)
风速5节,风向多变
能見度: 10公里
少量云层高于10000英尺
少量云层高于25000英尺
从 04日的 2000点(UTC)
风速7节,风向西
能見度: 10公里
少量云层高于6000英尺, 积雨云.
散云层高于10000英尺
附近有雷暴
短暂存在
从 04日的 21点(UTC)到 05日的 01点(UTC)
风速15节,风向多变,有时为30节阵风
能見度: 6.4公里
多云层高于6000英尺, 积雨云.
雷暴, 雨, 轻雾
从 05日的 0400点(UTC)
风速6节,风向多变
能見度: 10公里
少量云层高于4500英尺
散云层高于10000英尺

TAF: KBZN 041120Z 0412/0518 VRB05KT P6SM FEW100 FEW250 FM042000 28007KT P6SM VCTS FEW060CB SCT100 TEMPO 0421/0501 VRB15G30KT 4SM TSRA BR BKN060CB FM050400 VRB06KT P6SM FEW045 SCT100

超过4000个机场的气象观测和天气预报(METAR&TAF报告)。

可查询的气象台以黄色和红色小点在地图上表示。

将鼠标移到小点上方,可查看气象台名称。

然后点击查看天气观测和预报。

如需切换地图:点击带黑十字的绿色按钮放大地图;点击带横线的绿色按钮缩小地图;或者点击绿色箭头查看邻近地区的地图。


METAR-TAF: